Tilden, Nebraska
Current Conditions -  °F | °C
As of 10:56 PM on Wednesday 26 Nov 2014 (Local Time) from KOFK Reporting Station
Clear Clear  
Wind Chill:   Ceiling: Unl
Heat Index: 14°   Visibility: 10mi
Dew Point:   Wind: 6mph
Humidity: 80%   Direction: 310°NW
Pressure: 30.45"   Gusts: NA
Location:  42.04°N, 97.83°W
Report Text: KOFK 270456Z AUTO 31005KT 10SM CLR M10/M13 A3045 RMK AO2 SLP337 T11001128
Loading
Personal Weather Stations






























Interactive Weather Map New forecast layout! Learn more

10-Day Weather Forecast

Advertisements
Track Severe Weather on mobile